Time;durP1;ratioP1;P1;durP2;ratioP2;P2;SDS_P1;SDS_P2;PMS_P1;PMS_P2;Temp;Humidity;BMP_temperature;BMP_pressure;BME280_temperature;BME280_humidity;BME280_pressure;Samples;Min_cycle;Max_cycle;Signal;HPM_P1;HPM_P2
2023/02/27 00:01:09;;;;;;;3.25;1.02;;;4.10;45.20;;;;;;2588737;52;20968;-85
2023/02/27 00:03:39;;;;;;;1.87;0.80;;;4.10;45.20;;;;;;2589380;52;20896;-86
2023/02/27 00:06:05;;;;;;;1.67;0.80;;;4.10;45.20;;;;;;2588907;52;20930;-85
2023/02/27 00:08:31;;;;;;;2.22;0.77;;;4.10;45.10;;;;;;2344249;53;21532;-87
2023/02/27 00:10:58;;;;;;;1.90;0.80;;;4.10;45.20;;;;;;2344534;53;21919;-87
2023/02/27 00:13:25;;;;;;;2.55;0.73;;;4.10;45.20;;;;;;2589460;52;20933;-86
2023/02/27 00:15:52;;;;;;;2.03;0.80;;;4.10;45.20;;;;;;2590136;52;20945;-86
2023/02/27 00:18:18;;;;;;;1.50;0.70;;;4.10;45.20;;;;;;2344126;53;20950;-87
2023/02/27 00:20:44;;;;;;;2.00;0.75;;;4.10;45.20;;;;;;2589640;52;20912;-85
2023/02/27 00:23:11;;;;;;;2.42;0.90;;;4.10;45.20;;;;;;2589766;52;21913;-85
2023/02/27 00:25:37;;;;;;;1.75;0.77;;;4.00;45.10;;;;;;2343788;53;20926;-85
2023/02/27 00:28:03;;;;;;;1.40;0.60;;;4.10;45.20;;;;;;2589464;52;20972;-85
2023/02/27 00:30:30;;;;;;;1.95;0.75;;;4.10;45.80;;;;;;2589434;52;21967;-86
2023/02/27 00:32:56;;;;;;;1.77;0.70;;;4.00;45.10;;;;;;2589759;52;21229;-87
2023/02/27 00:35:22;;;;;;;2.60;0.88;;;4.00;45.20;;;;;;2589053;52;20929;-86
2023/02/27 00:37:49;;;;;;;2.60;0.80;;;4.00;45.20;;;;;;2343687;53;21810;-86
2023/02/27 00:40:15;;;;;;;1.62;0.75;;;4.00;45.20;;;;;;2589785;52;21841;-85
2023/02/27 00:42:42;;;;;;;2.22;1.00;;;4.00;45.20;;;;;;2589757;52;20874;-87
2023/02/27 00:45:08;;;;;;;1.92;0.80;;;4.00;45.20;;;;;;2589721;52;20901;-85
2023/02/27 00:47:35;;;;;;;2.97;0.90;;;4.00;45.20;;;;;;2589666;52;20988;-86
2023/02/27 00:50:01;;;;;;;1.92;0.80;;;4.00;45.20;;;;;;2589823;52;20933;-86
2023/02/27 00:52:27;;;;;;;1.95;0.80;;;4.00;45.20;;;;;;2343904;53;20925;-85
2023/02/27 00:54:54;;;;;;;2.20;0.80;;;4.00;45.20;;;;;;2589759;52;21477;-86
2023/02/27 00:57:20;;;;;;;2.12;0.93;;;4.00;45.20;;;;;;2589548;52;21824;-86
2023/02/27 00:59:47;;;;;;;2.53;0.80;;;4.00;45.20;;;;;;2589783;52;21027;-86
2023/02/27 01:02:13;;;;;;;2.65;0.80;;;3.90;45.20;;;;;;2589916;52;21194;-84
2023/02/27 01:04:40;;;;;;;1.87;0.80;;;3.90;45.20;;;;;;2589517;52;22164;-85
2023/02/27 01:07:06;;;;;;;2.33;0.80;;;3.90;45.20;;;;;;2589814;52;21270;-86
2023/02/27 01:09:32;;;;;;;2.10;0.80;;;3.90;45.20;;;;;;2589405;52;21576;-86
2023/02/27 01:11:59;;;;;;;1.73;0.70;;;3.90;45.20;;;;;;2590188;52;20982;-86
2023/02/27 01:14:25;;;;;;;2.28;0.90;;;3.80;45.10;;;;;;2589621;52;20992;-86
2023/02/27 01:16:51;;;;;;;2.03;0.95;;;3.90;45.20;;;;;;2589711;52;20964;-86
2023/02/27 01:19:20;;;;;;;1.65;0.62;;;3.90;45.20;;;;;;2590029;52;21231;-86
2023/02/27 01:21:46;;;;;;;2.05;0.85;;;3.90;45.20;;;;;;2557474;53;21733;-87
2023/02/27 01:24:13;;;;;;;3.37;0.82;;;3.90;45.20;;;;;;2343866;54;21656;-86
2023/02/27 01:26:39;;;;;;;2.92;0.98;;;3.90;45.20;;;;;;2589054;52;21845;-86
2023/02/27 01:29:05;;;;;;;1.90;0.80;;;3.90;45.20;;;;;;2589561;52;21326;-86
2023/02/27 01:31:32;;;;;;;3.05;0.90;;;3.80;45.10;;;;;;2585756;52;20950;-86
2023/02/27 01:33:58;;;;;;;1.80;0.77;;;3.80;45.20;;;;;;2341859;53;21505;-85
2023/02/27 01:36:25;;;;;;;2.55;0.90;;;3.80;45.10;;;;;;2589375;52;21058;-86
2023/02/27 01:38:51;;;;;;;2.47;1.00;;;3.80;45.10;;;;;;2343838;53;20928;-85
2023/02/27 01:41:17;;;;;;;2.25;1.00;;;3.80;45.20;;;;;;2589233;52;20968;-85
2023/02/27 01:47:16;;;;;;;2.20;0.80;;;3.80;45.10;;;;;;2589065;52;20960;-87
2023/02/27 01:49:42;;;;;;;2.67;0.90;;;3.80;45.00;;;;;;2589465;52;20829;-85
2023/02/27 01:52:09;;;;;;;1.35;0.70;;;3.80;45.10;;;;;;2344033;53;21848;-87
2023/02/27 01:54:37;;;;;;;1.60;0.65;;;3.70;45.10;;;;;;2588907;52;20933;-87
2023/02/27 01:57:05;;;;;;;2.00;0.82;;;3.80;45.20;;;;;;2589130;52;20949;-85
2023/02/27 01:59:33;;;;;;;2.62;0.90;;;3.70;45.10;;;;;;2589148;52;21040;-85
2023/02/27 02:02:00;;;;;;;2.05;0.80;;;3.70;45.20;;;;;;2344151;53;21777;-85
2023/02/27 02:04:28;;;;;;;1.65;0.70;;;3.70;45.20;;;;;;2587003;52;21052;-86
2023/02/27 02:06:58;;;;;;;2.87;0.77;;;3.70;45.20;;;;;;2342554;53;20960;-86
2023/02/27 02:09:25;;;;;;;2.85;0.93;;;3.70;45.30;;;;;;2343608;53;20936;-85
2023/02/27 02:11:51;;;;;;;2.05;0.77;;;3.60;45.10;;;;;;2589678;52;20896;-87
2023/02/27 02:14:18;;;;;;;2.35;0.82;;;3.60;45.20;;;;;;2589563;52;20972;-86
2023/02/27 02:17:23;;;;;;;3.30;0.90;;;3.60;45.20;;;;;;2589520;52;20825;-86
2023/02/27 02:20:26;;;;;;;2.05;0.70;;;3.60;45.20;;;;;;2557872;52;20932;-87
2023/02/27 02:25:01;;;;;;;1.70;0.60;;;3.60;45.20;;;;;;2557688;53;20972;-87
2023/02/27 02:30:56;;;;;;;1.37;0.77;;;3.60;45.10;;;;;;2589731;52;20948;-86
2023/02/27 02:33:35;;;;;;;1.10;0.52;;;3.30;45.00;;;;;;2345715;53;21568;-86
2023/02/27 02:39:44;;;;;;;3.03;0.90;;;3.50;45.20;;;;;;2587630;52;20917;-87
2023/02/27 02:45:14;;;;;;;2.42;0.90;;;3.50;45.20;;;;;;2588515;52;20900;-86
2023/02/27 02:48:10;;;;;;;2.67;0.95;;;3.40;45.30;;;;;;2585138;52;21020;-87
2023/02/27 02:50:47;;;;;;;1.92;0.90;;;3.40;45.30;;;;;;2587953;52;20937;-86
2023/02/27 02:54:11;;;;;;;2.17;0.90;;;3.40;45.40;;;;;;2588473;52;20987;-86
2023/02/27 02:56:44;;;;;;;3.17;0.80;;;3.30;45.30;;;;;;2588297;52;20929;-86
2023/02/27 03:00:35;;;;;;;2.58;1.00;;;3.30;45.40;;;;;;2588464;52;20956;-87
2023/02/27 03:03:08;;;;;;;1.58;0.70;;;3.30;45.50;;;;;;2588308;52;20905;-86
2023/02/27 03:07:09;;;;;;;1.70;0.80;;;3.30;45.40;;;;;;2587483;52;20995;-86
2023/02/27 03:10:15;;;;;;;2.33;0.95;;;3.30;45.50;;;;;;2342562;53;20964;-86
2023/02/27 03:12:44;;;;;;;1.80;0.88;;;3.30;45.50;;;;;;2587825;52;21596;-87
2023/02/27 03:15:21;;;;;;;2.72;0.90;;;3.30;45.50;;;;;;2587656;52;20964;-86
2023/02/27 03:18:17;;;;;;;2.50;0.98;;;3.30;45.50;;;;;;2587959;52;22151;-86
2023/02/27 03:20:50;;;;;;;2.50;0.90;;;3.30;45.50;;;;;;2587965;52;21577;-87
2023/02/27 03:23:20;;;;;;;2.40;0.90;;;3.30;45.60;;;;;;2588051;52;21839;-86
2023/02/27 03:25:46;;;;;;;2.60;1.00;;;3.30;45.60;;;;;;2342704;53;21646;-86
2023/02/27 03:28:22;;;;;;;3.33;0.93;;;3.30;45.60;;;;;;2588347;52;21584;-87
2023/02/27 03:30:55;;;;;;;2.50;1.00;;;3.40;45.70;;;;;;2587823;52;22250;-86
2023/02/27 03:33:38;;;;;;;3.35;0.95;;;3.40;45.70;;;;;;2587996;52;20969;-87
2023/02/27 03:36:27;;;;;;;2.80;1.02;;;3.40;45.70;;;;;;2589981;52;20892;-86
2023/02/27 03:39:18;;;;;;;1.70;0.80;;;3.40;45.70;;;;;;2344166;53;21255;-86
2023/02/27 03:42:01;;;;;;;1.80;0.85;;;3.40;45.70;;;;;;2589515;52;20957;-86
2023/02/27 03:44:40;;;;;;;2.28;1.00;;;3.40;45.70;;;;;;2343681;53;20957;-85
2023/02/27 03:47:06;;;;;;;2.85;0.90;;;3.40;45.70;;;;;;2344569;53;20881;-87
2023/02/27 03:49:32;;;;;;;2.22;0.80;;;3.40;45.70;;;;;;2589635;52;20924;-87
2023/02/27 03:51:58;;;;;;;3.03;0.98;;;3.40;45.70;;;;;;2589393;52;20924;-88
2023/02/27 03:54:26;;;;;;;3.12;1.02;;;3.60;45.80;;;;;;2344512;53;20897;-87
2023/02/27 03:57:06;;;;;;;2.30;0.95;;;3.50;45.80;;;;;;2589517;52;20834;-86
2023/02/27 03:59:32;;;;;;;2.87;0.88;;;3.50;45.70;;;;;;2588841;52;20917;-86
2023/02/27 04:01:59;;;;;;;1.70;0.80;;;3.50;45.70;;;;;;2589159;52;21196;-86
2023/02/27 04:04:26;;;;;;;2.40;1.00;;;3.50;45.70;;;;;;2589396;52;21746;-86
2023/02/27 04:07:21;;;;;;;2.12;0.90;;;3.50;45.70;;;;;;2589299;52;21027;-87
2023/02/27 04:13:02;;;;;;;2.20;0.90;;;3.60;45.70;;;;;;2589367;52;20889;-86
2023/02/27 04:22:07;;;;;;;2.85;1.00;;;3.60;45.60;;;;;;2589423;52;20949;-86
2023/02/27 04:26:08;;;;;;;1.67;0.82;;;3.60;45.60;;;;;;2343811;53;20901;-87
2023/02/27 04:28:43;;;;;;;1.52;0.75;;;3.60;45.50;;;;;;2344193;53;20932;-86
2023/02/27 04:32:43;;;;;;;2.87;0.90;;;3.60;45.60;;;;;;2344462;53;20909;-86
2023/02/27 04:35:16;;;;;;;2.45;0.98;;;3.60;45.50;;;;;;2589565;52;20932;-86
2023/02/27 04:38:29;;;;;;;;;;;3.60;45.70;;;;;;2593164;52;20967;-86
2023/02/27 04:41:05;;;;;;;2.60;1.15;;;3.60;45.60;;;;;;2344214;53;20134;-86
2023/02/27 04:43:31;;;;;;;2.70;0.98;;;3.50;45.50;;;;;;2589421;52;20973;-87
2023/02/27 04:46:01;;;;;;;2.05;0.90;;;3.50;45.60;;;;;;2587012;52;20862;-86
2023/02/27 04:48:39;;;;;;;2.55;0.93;;;3.50;45.60;;;;;;2587982;52;20857;-85
2023/02/27 04:51:13;;;;;;;1.48;0.73;;;3.50;45.50;;;;;;2589769;52;21540;-86
2023/02/27 04:54:23;;;;;;;1.83;0.80;;;3.50;45.60;;;;;;2344270;53;20923;-86
2023/02/27 04:56:54;;;;;;;2.53;1.10;;;3.50;45.50;;;;;;2589418;52;20969;-86
2023/02/27 04:59:26;;;;;;;2.28;1.00;;;3.50;45.50;;;;;;2589933;52;20956;-86
2023/02/27 05:02:03;;;;;;;2.97;1.00;;;3.40;45.60;;;;;;2589634;52;20904;-86
2023/02/27 05:04:32;;;;;;;2.30;0.90;;;3.40;45.60;;;;;;2344083;53;20965;-86
2023/02/27 05:06:59;;;;;;;1.87;0.80;;;3.40;45.60;;;;;;2588381;52;20916;-85
2023/02/27 05:09:53;;;;;;;1.95;1.00;;;3.40;45.60;;;;;;2339834;53;21464;-85
2023/02/27 05:13:09;;;;;;;2.75;1.02;;;3.40;45.50;;;;;;2344277;53;20940;-85
2023/02/27 05:15:44;;;;;;;2.62;1.10;;;3.40;45.70;;;;;;2589708;52;21004;-84
2023/02/27 05:18:12;;;;;;;3.35;1.15;;;3.40;45.60;;;;;;2590177;52;20885;-85
2023/02/27 05:20:50;;;;;;;3.03;1.20;;;3.30;45.60;;;;;;2589912;52;21781;-85
2023/02/27 05:25:12;;;;;;;3.22;1.20;;;3.30;45.60;;;;;;2589602;52;20886;-86
2023/02/27 05:28:33;;;;;;;2.37;1.00;;;3.30;45.50;;;;;;2589663;52;21071;-85
2023/02/27 05:31:14;;;;;;;3.00;1.30;;;3.30;45.50;;;;;;2584181;52;20950;-84
2023/02/27 05:33:59;;;;;;;2.60;1.15;;;3.20;45.50;;;;;;2585119;52;20990;-85
2023/02/27 05:36:56;;;;;;;3.60;1.42;;;3.20;45.60;;;;;;2586323;52;20949;-85
2023/02/27 05:39:24;;;;;;;3.80;1.35;;;3.20;45.60;;;;;;2589549;52;21215;-84
2023/02/27 05:41:59;;;;;;;3.20;1.25;;;3.10;45.60;;;;;;2344402;53;20939;-86
2023/02/27 05:44:33;;;;;;;3.62;1.20;;;3.10;45.60;;;;;;2589327;52;20944;-85
2023/02/27 05:47:03;;;;;;;2.60;1.30;;;3.10;45.60;;;;;;2589678;52;20984;-85
2023/02/27 05:50:25;;;;;;;3.58;1.12;;;3.00;45.60;;;;;;2589964;52;21271;-85
2023/02/27 05:52:52;;;;;;;4.55;1.50;;;3.00;45.60;;;;;;2589938;52;20996;-85
2023/02/27 05:55:30;;;;;;;4.68;1.40;;;3.00;45.70;;;;;;2589541;52;21942;-84
2023/02/27 05:58:35;;;;;;;2.97;1.20;;;3.00;45.80;;;;;;2588952;52;20917;-84
2023/02/27 06:01:05;;;;;;;3.08;1.10;;;2.90;45.80;;;;;;2589294;52;20957;-84
2023/02/27 06:03:32;;;;;;;3.12;1.30;;;2.90;45.80;;;;;;2587799;52;20934;-85
2023/02/27 06:06:02;;;;;;;3.58;1.30;;;2.80;45.70;;;;;;2570939;53;21019;-85
2023/02/27 06:08:29;;;;;;;3.47;1.40;;;2.80;45.70;;;;;;2589644;52;20997;-85
2023/02/27 06:10:55;;;;;;;2.87;1.23;;;2.80;45.80;;;;;;2588487;52;21099;-85
2023/02/27 06:13:22;;;;;;;4.65;1.37;;;2.70;45.70;;;;;;2342777;53;20964;-85
2023/02/27 06:15:48;;;;;;;3.40;1.55;;;2.70;45.80;;;;;;2342662;53;21002;-86
2023/02/27 06:18:15;;;;;;;2.55;1.17;;;2.70;45.90;;;;;;2588108;52;20873;-85
2023/02/27 06:20:41;;;;;;;3.53;1.40;;;2.60;45.80;;;;;;2345950;53;20952;-85
2023/02/27 06:23:07;;;;;;;3.08;1.27;;;2.60;45.90;;;;;;2588278;52;21007;-86
2023/02/27 06:25:33;;;;;;;2.70;1.17;;;2.60;45.90;;;;;;2322752;54;20949;-86
2023/02/27 06:28:00;;;;;;;3.50;1.40;;;2.50;45.90;;;;;;2333481;54;20948;-85
2023/02/27 06:30:26;;;;;;;2.75;1.20;;;2.50;46.00;;;;;;2585013;52;20952;-85
2023/02/27 06:32:53;;;;;;;4.03;1.40;;;2.50;46.00;;;;;;2585248;53;21720;-85
2023/02/27 06:35:20;;;;;;;3.50;1.60;;;2.50;46.20;;;;;;2589596;52;20953;-84
2023/02/27 06:37:46;;;;;;;4.15;1.60;;;2.40;46.00;;;;;;2589625;52;20965;-84
2023/02/27 06:40:13;;;;;;;4.37;1.67;;;2.40;46.10;;;;;;2590296;52;20952;-86
2023/02/27 06:42:40;;;;;;;5.00;1.65;;;2.40;46.20;;;;;;2345711;53;20926;-86
2023/02/27 06:45:07;;;;;;;6.57;2.00;;;2.20;46.10;;;;;;2589173;52;21043;-86
2023/02/27 06:47:33;;;;;;;4.85;1.62;;;2.30;46.20;;;;;;2589618;52;20885;-86
2023/02/27 06:50:00;;;;;;;4.85;2.12;;;2.30;46.10;;;;;;2589215;52;20960;-86
2023/02/27 06:52:26;;;;;;;4.07;1.40;;;2.30;46.20;;;;;;2589812;52;20953;-86
2023/02/27 06:54:55;;;;;;;4.15;1.90;;;2.10;46.10;;;;;;2589571;52;20913;-86
2023/02/27 06:57:21;;;;;;;3.62;1.65;;;2.30;46.50;;;;;;2344833;53;20897;-85
2023/02/27 06:59:48;;;;;;;5.15;1.77;;;2.20;46.40;;;;;;2589621;52;21390;-87
2023/02/27 07:02:14;;;;;;;2.80;1.40;;;2.20;46.40;;;;;;2590208;52;20897;-87
2023/02/27 07:04:41;;;;;;;5.20;2.33;;;2.20;46.50;;;;;;2344949;54;20933;-86
2023/02/27 07:07:07;;;;;;;5.40;2.50;;;2.20;46.50;;;;;;2589388;52;21808;-85
2023/02/27 07:09:35;;;;;;;9.82;2.78;;;2.20;46.60;;;;;;2584189;52;20966;-87
2023/02/27 07:12:02;;;;;;;5.57;2.22;;;2.10;46.50;;;;;;2587873;52;20944;-86
2023/02/27 07:14:28;;;;;;;7.18;2.80;;;2.20;46.60;;;;;;2590205;53;20909;-84
2023/02/27 07:16:54;;;;;;;6.95;2.37;;;2.30;46.70;;;;;;2344575;53;21049;-86
2023/02/27 07:19:22;;;;;;;6.40;2.08;;;2.20;46.80;;;;;;2342794;53;22134;-85
2023/02/27 07:21:49;;;;;;;5.45;2.40;;;2.20;46.80;;;;;;2343387;53;21012;-86
2023/02/27 07:24:15;;;;;;;5.78;2.60;;;2.20;47.20;;;;;;2587464;53;22053;-87
2023/02/27 07:26:41;;;;;;;5.37;2.08;;;2.20;46.90;;;;;;2585804;52;20940;-86
2023/02/27 07:29:08;;;;;;;5.43;2.05;;;2.20;46.80;;;;;;2587862;52;21101;-86
2023/02/27 07:31:35;;;;;;;4.03;1.73;;;2.20;46.80;;;;;;2588015;52;21331;-87
2023/02/27 07:34:01;;;;;;;4.62;1.67;;;2.20;46.90;;;;;;2587827;52;22274;-85
2023/02/27 07:36:29;;;;;;;3.40;1.70;;;2.20;46.90;;;;;;2588064;52;20983;-84
2023/02/27 07:38:56;;;;;;;3.85;1.52;;;2.30;47.10;;;;;;2344065;53;20972;-86
2023/02/27 07:41:27;;;;;;;4.35;1.85;;;2.30;47.20;;;;;;2587301;53;20981;-84
2023/02/27 07:43:56;;;;;;;5.68;2.12;;;2.30;47.20;;;;;;2587514;52;21012;-86
2023/02/27 07:46:25;;;;;;;4.50;1.80;;;2.30;47.20;;;;;;2588273;52;20948;-86
2023/02/27 07:48:53;;;;;;;4.00;1.92;;;2.40;47.30;;;;;;2588941;52;20960;-86
2023/02/27 07:51:21;;;;;;;5.03;1.55;;;2.40;47.50;;;;;;2589534;52;21038;-85
2023/02/27 07:53:48;;;;;;;5.30;2.20;;;2.50;47.40;;;;;;2589857;52;20945;-85
2023/02/27 07:56:14;;;;;;;5.15;2.00;;;2.50;47.30;;;;;;2349138;53;20916;-85
2023/02/27 07:58:40;;;;;;;4.43;1.42;;;2.50;47.50;;;;;;2589070;52;20972;-85
2023/02/27 08:01:07;;;;;;;3.10;1.65;;;2.60;47.50;;;;;;2589420;52;21257;-86
2023/02/27 08:03:33;;;;;;;4.82;2.03;;;2.60;47.60;;;;;;2589702;53;20921;-86
2023/02/27 08:06:00;;;;;;;3.75;2.00;;;2.70;47.70;;;;;;2588944;52;21224;-85
2023/02/27 08:08:30;;;;;;;3.75;1.70;;;2.70;47.80;;;;;;2585496;52;20985;-84
2023/02/27 08:10:57;;;;;;;4.50;1.92;;;2.80;47.80;;;;;;2344908;53;21210;-86
2023/02/27 08:13:24;;;;;;;5.55;2.30;;;2.80;47.80;;;;;;2589698;52;20920;-84
2023/02/27 08:16:21;;;;;;;5.05;2.00;;;2.90;47.90;;;;;;2589641;52;20960;-85
2023/02/27 08:18:50;;;;;;;4.15;1.73;;;3.00;48.00;;;;;;2590457;52;20938;-86
2023/02/27 08:21:17;;;;;;;5.97;1.80;;;3.00;48.00;;;;;;2589402;52;20944;-85
2023/02/27 08:23:43;;;;;;;5.10;1.83;;;3.20;48.10;;;;;;2343993;53;22499;-85
2023/02/27 08:26:09;;;;;;;3.92;1.70;;;3.20;48.00;;;;;;2344350;53;20935;-85
2023/02/27 08:28:36;;;;;;;4.82;1.80;;;3.20;48.00;;;;;;2345546;53;20978;-86
2023/02/27 08:31:02;;;;;;;5.45;2.15;;;3.30;47.90;;;;;;2588838;52;20936;-85
2023/02/27 08:33:28;;;;;;;3.45;1.60;;;3.40;48.00;;;;;;2590018;52;20905;-85
2023/02/27 08:35:55;;;;;;;5.85;2.78;;;3.40;47.90;;;;;;2589720;52;20948;-85
2023/02/27 08:38:22;;;;;;;6.97;2.50;;;3.50;48.00;;;;;;2345329;53;20968;-86
2023/02/27 08:43:34;;;;;;;4.03;1.83;;;3.70;48.10;;;;;;2587616;52;20912;-84
2023/02/27 08:46:00;;;;;;;3.92;1.65;;;3.80;48.60;;;;;;2590070;52;20897;-86
2023/02/27 08:48:27;;;;;;;3.92;1.90;;;3.80;48.00;;;;;;2590820;52;20905;-86
2023/02/27 08:50:54;;;;;;;3.90;1.80;;;3.90;48.00;;;;;;2590393;52;21531;-84
2023/02/27 08:53:22;;;;;;;2.75;1.37;;;4.00;48.10;;;;;;2590670;52;20949;-85
2023/02/27 08:55:50;;;;;;;3.42;1.55;;;4.10;48.10;;;;;;2344518;53;20880;-85
2023/02/27 08:58:16;;;;;;;5.12;1.62;;;4.20;48.10;;;;;;2580053;52;20956;-86
2023/02/27 09:00:44;;;;;;;2.75;1.35;;;4.30;48.10;;;;;;2587833;52;21037;-86
2023/02/27 09:03:10;;;;;;;3.12;1.27;;;4.40;48.70;;;;;;2587679;52;20980;-86
2023/02/27 09:05:37;;;;;;;2.72;1.25;;;4.50;48.40;;;;;;2588143;53;20991;-85
2023/02/27 09:08:03;;;;;;;3.17;1.30;;;4.70;48.30;;;;;;2344896;53;21008;-85
2023/02/27 09:10:31;;;;;;;3.90;1.27;;;4.80;48.40;;;;;;2586640;53;21002;-85
2023/02/27 09:12:58;;;;;;;2.60;1.00;;;5.00;48.40;;;;;;2586354;53;20949;-86
2023/02/27 09:15:24;;;;;;;2.35;1.00;;;5.10;48.30;;;;;;2588283;52;21958;-85
2023/02/27 09:17:51;;;;;;;3.50;1.10;;;5.30;48.30;;;;;;2588062;52;20995;-85
2023/02/27 09:20:17;;;;;;;2.60;1.08;;;5.40;48.10;;;;;;2344291;53;20971;-85
2023/02/27 09:22:43;;;;;;;2.30;0.90;;;5.40;48.10;;;;;;2345338;53;21005;-86
2023/02/27 09:25:10;;;;;;;2.60;1.20;;;5.70;48.50;;;;;;2344348;53;20960;-85
2023/02/27 09:27:36;;;;;;;2.83;1.25;;;5.90;47.80;;;;;;2586813;53;20955;-86
2023/02/27 09:30:03;;;;;;;2.00;1.00;;;6.00;47.70;;;;;;2342429;53;20976;-86
2023/02/27 09:32:30;;;;;;;2.90;1.10;;;6.10;47.70;;;;;;2342749;53;20947;-83
2023/02/27 09:34:57;;;;;;;4.50;1.65;;;6.20;47.50;;;;;;2586589;52;20901;-85
2023/02/27 09:37:23;;;;;;;3.90;1.20;;;6.40;47.80;;;;;;2344152;53;21815;-86
2023/02/27 09:39:50;;;;;;;4.40;1.20;;;6.50;47.80;;;;;;2588758;53;21519;-86
2023/02/27 09:42:24;;;;;;;2.50;0.90;;;6.70;47.50;;;;;;2588479;52;21004;-83
2023/02/27 09:44:59;;;;;;;2.53;1.10;;;6.80;47.20;;;;;;2361069;53;131300;-73
2023/02/27 09:47:36;;;;;;;2.20;0.90;;;6.90;47.00;;;;;;2333041;54;20965;-72
2023/02/27 09:50:48;;;;;;;2.17;0.93;;;7.00;46.90;;;;;;2332250;54;21030;-73
2023/02/27 09:54:18;;;;;;;2.53;1.10;;;7.10;46.50;;;;;;2332289;54;20933;-73
2023/02/27 09:57:18;;;;;;;2.87;0.98;;;7.30;46.70;;;;;;2381080;53;20956;-74
2023/02/27 09:59:51;;;;;;;2.10;0.90;;;7.40;46.60;;;;;;2443680;53;21032;-74
2023/02/27 10:03:37;;;;;;;2.78;1.02;;;7.50;46.70;;;;;;2332518;54;21259;-71
2023/02/27 10:06:57;;;;;;;3.28;0.93;;;7.60;46.30;;;;;;2332351;53;21797;-72
2023/02/27 10:10:39;;;;;;;2.50;0.93;;;7.70;46.50;;;;;;2332553;54;20911;-72
2023/02/27 10:13:46;;;;;;;2.40;0.88;;;7.90;46.30;;;;;;2369773;53;21516;-73
2023/02/27 10:16:14;;;;;;;2.20;0.80;;;8.00;46.20;;;;;;2428153;53;21055;-73
2023/02/27 10:19:22;;;;;;;1.90;0.77;;;8.10;46.40;;;;;;2332640;54;21012;-72
2023/02/27 10:21:50;;;;;;;1.80;0.77;;;8.10;46.20;;;;;;2333712;53;21004;-74
2023/02/27 10:24:30;;;;;;;2.00;0.93;;;8.20;46.30;;;;;;2332617;54;20940;-71
2023/02/27 10:26:58;;;;;;;3.03;1.00;;;8.30;46.10;;;;;;2332832;53;20975;-71
2023/02/27 10:29:29;;;;;;;3.58;1.00;;;8.40;46.30;;;;;;2380970;53;21106;-73
2023/02/27 10:35:34;;;;;;;2.42;0.85;;;8.50;46.10;;;;;;2421399;53;21484;-75
2023/02/27 10:38:13;;;;;;;2.75;0.85;;;8.60;45.90;;;;;;2407412;53;20967;-73
2023/02/27 10:40:39;;;;;;;2.47;0.80;;;8.90;46.70;;;;;;2332300;54;20977;-74
2023/02/27 10:43:06;;;;;;;2.45;0.80;;;8.90;45.90;;;;;;2332719;54;21222;-72
2023/02/27 10:45:33;;;;;;;1.67;0.60;;;9.00;45.80;;;;;;2442943;53;20972;-74
2023/02/27 10:48:00;;;;;;;2.28;0.82;;;9.10;45.70;;;;;;2339772;53;20920;-74
2023/02/27 10:50:31;;;;;;;1.92;0.90;;;9.10;45.40;;;;;;2364516;53;20945;-73
2023/02/27 10:53:00;;;;;;;2.92;1.08;;;9.20;45.30;;;;;;2515025;53;21390;-72
2023/02/27 10:55:34;;;;;;;2.17;0.80;;;9.20;45.10;;;;;;2333350;54;21335;-73
2023/02/27 10:58:01;;;;;;;2.80;1.00;;;9.40;45.10;;;;;;2332045;54;20933;-74
2023/02/27 11:01:02;;;;;;;1.30;0.62;;;9.40;45.20;;;;;;2332840;54;21433;-72
2023/02/27 11:03:41;;;;;;;2.37;0.70;;;9.50;44.60;;;;;;2333059;54;21398;-73
2023/02/27 11:06:21;;;;;;;2.58;0.90;;;9.60;44.60;;;;;;2336751;53;21350;-75
2023/02/27 11:09:17;;;;;;;2.15;0.88;;;9.60;44.50;;;;;;2441208;53;20980;-74
2023/02/27 11:11:43;;;;;;;1.52;0.77;;;9.70;44.20;;;;;;2332871;54;20972;-72
2023/02/27 11:14:29;;;;;;;1.95;0.85;;;9.70;44.80;;;;;;2332659;54;21292;-74
2023/02/27 11:17:00;;;;;;;1.85;0.80;;;9.80;44.40;;;;;;2333150;54;20955;-73
2023/02/27 11:19:36;;;;;;;1.75;0.80;;;9.90;44.80;;;;;;2332854;54;21068;-73
2023/02/27 11:22:19;;;;;;;3.42;0.77;;;10.00;43.80;;;;;;2332570;54;20934;-71
2023/02/27 11:24:46;;;;;;;2.58;0.80;;;10.00;43.70;;;;;;2464586;53;21029;-72
2023/02/27 11:27:27;;;;;;;2.22;0.90;;;10.10;44.00;;;;;;2332582;54;21008;-73
2023/02/27 11:30:05;;;;;;;3.65;0.85;;;10.20;43.10;;;;;;2407031;53;21035;-72
2023/02/27 11:32:44;;;;;;;1.87;0.90;;;10.30;43.00;;;;;;2334620;53;20920;-73
2023/02/27 11:35:30;;;;;;;2.83;1.20;;;10.30;42.80;;;;;;2332463;54;20985;-72
2023/02/27 11:38:02;;;;;;;2.42;0.85;;;10.40;42.90;;;;;;2332568;54;21354;-76
2023/02/27 11:40:33;;;;;;;2.92;0.95;;;10.40;43.30;;;;;;2332710;54;21564;-74
2023/02/27 11:43:20;;;;;;;1.70;0.70;;;10.50;43.20;;;;;;2344773;53;22099;-77
2023/02/27 11:45:58;;;;;;;2.17;1.00;;;10.60;42.90;;;;;;2332050;54;20929;-75
2023/02/27 11:50:16;;;;;;;2.80;1.12;;;10.60;42.50;;;;;;2332232;54;21413;-74
2023/02/27 11:53:51;;;;;;;2.25;0.90;;;10.70;42.50;;;;;;2332734;54;21008;-73
2023/02/27 11:56:25;;;;;;;2.45;0.90;;;10.80;41.80;;;;;;2576392;53;20944;-74
2023/02/27 12:02:04;;;;;;;3.12;1.08;;;10.80;42.40;;;;;;2332832;54;21004;-75
2023/02/27 12:04:51;;;;;;;1.60;0.73;;;10.80;42.20;;;;;;2344040;53;20956;-75
2023/02/27 12:08:49;;;;;;;2.15;0.80;;;10.80;42.20;;;;;;2332402;54;20944;-75
2023/02/27 12:11:40;;;;;;;1.87;0.73;;;10.80;42.10;;;;;;2332571;54;21307;-75
2023/02/27 12:14:20;;;;;;;2.53;0.98;;;10.80;41.80;;;;;;2375832;53;20933;-76
2023/02/27 12:16:52;;;;;;;2.10;1.00;;;10.80;41.50;;;;;;2332844;54;21275;-77
2023/02/27 12:19:36;;;;;;;2.08;0.82;;;10.80;41.40;;;;;;2332510;54;21336;-76
2023/02/27 12:22:16;;;;;;;5.45;1.23;;;10.80;41.30;;;;;;2332217;54;21055;-75
2023/02/27 12:24:52;;;;;;;2.40;1.00;;;10.80;41.20;;;;;;2377866;53;20937;-76
2023/02/27 12:28:57;;;;;;;2.22;0.90;;;10.80;41.40;;;;;;2332547;54;21694;-74
2023/02/27 12:33:08;;;;;;;2.72;0.90;;;10.80;41.40;;;;;;2332499;53;21000;-76
2023/02/27 12:35:34;;;;;;;2.03;0.80;;;11.00;40.80;;;;;;2332912;54;21021;-76
2023/02/27 12:38:02;;;;;;;2.60;1.20;;;11.00;41.60;;;;;;2333728;53;20952;-74
2023/02/27 12:43:57;;;;;;;2.87;1.20;;;11.00;41.50;;;;;;2333104;54;20988;-74
2023/02/27 12:46:31;;;;;;;1.70;0.70;;;11.10;41.00;;;;;;2332349;54;20925;-75
2023/02/27 12:50:23;;;;;;;1.95;0.90;;;11.30;41.60;;;;;;2333259;54;21405;-74
2023/02/27 12:53:17;;;;;;;2.25;1.00;;;11.30;41.30;;;;;;2332627;54;20964;-75
2023/02/27 12:55:46;;;;;;;2.75;1.37;;;11.30;40.90;;;;;;2333018;54;20960;-74
2023/02/27 12:59:06;;;;;;;3.30;1.17;;;11.50;41.20;;;;;;2381191;53;20949;-74
2023/02/27 13:02:17;;;;;;;2.40;0.95;;;11.50;40.30;;;;;;2348973;53;21295;-74
2023/02/27 13:04:45;;;;;;;2.62;1.10;;;11.50;40.70;;;;;;2425356;53;21028;-74
2023/02/27 13:07:24;;;;;;;2.22;0.90;;;11.60;41.00;;;;;;2332733;54;20928;-74
2023/02/27 13:09:54;;;;;;;1.95;0.90;;;11.60;40.50;;;;;;2433298;53;20996;-74
2023/02/27 13:12:30;;;;;;;3.00;1.12;;;11.70;40.60;;;;;;2331947;54;21205;-74
2023/02/27 13:15:05;;;;;;;2.70;1.00;;;11.70;40.40;;;;;;2463555;53;21445;-74
2023/02/27 13:17:46;;;;;;;2.67;1.00;;;11.80;40.60;;;;;;2332698;54;21484;-73
2023/02/27 13:20:43;;;;;;;2.22;1.10;;;11.80;40.20;;;;;;2333299;54;21323;-73
2023/02/27 13:24:45;;;;;;;2.08;0.77;;;11.90;40.00;;;;;;2333085;53;21395;-74
2023/02/27 13:27:34;;;;;;;1.95;0.98;;;11.90;40.20;;;;;;2332284;54;20976;-74
2023/02/27 13:30:12;;;;;;;2.97;1.70;;;12.00;39.90;;;;;;2333350;54;20960;-74
2023/02/27 13:34:51;;;;;;;2.28;1.12;;;12.00;39.80;;;;;;2332985;54;20917;-74
2023/02/27 13:37:17;;;;;;;2.12;0.93;;;12.00;39.30;;;;;;2332446;54;20972;-73
2023/02/27 13:39:54;;;;;;;3.47;1.50;;;12.10;40.20;;;;;;2333002;54;21468;-75
2023/02/27 13:42:58;;;;;;;2.35;1.10;;;12.10;39.90;;;;;;2332388;54;21029;-75
2023/02/27 13:52:13;;;;;;;2.60;1.00;;;12.20;39.40;;;;;;2332287;54;20940;-74
2023/02/27 13:54:39;;;;;;;2.72;0.75;;;12.40;39.90;;;;;;2333006;54;20921;-74
2023/02/27 13:57:16;;;;;;;2.30;1.05;;;12.40;40.20;;;;;;2339195;53;21351;-75
2023/02/27 13:59:50;;;;;;;2.42;1.00;;;12.40;39.30;;;;;;2398517;53;21754;-75
2023/02/27 14:02:34;;;;;;;2.00;0.70;;;12.40;39.70;;;;;;2332843;54;21356;-73
2023/02/27 14:05:03;;;;;;;2.10;0.90;;;12.40;38.90;;;;;;2332615;54;20957;-73
2023/02/27 14:08:14;;;;;;;2.80;1.00;;;12.40;39.20;;;;;;2332259;54;20960;-74
2023/02/27 14:10:59;;;;;;;2.50;0.82;;;12.40;39.00;;;;;;2332244;54;20912;-74
2023/02/27 14:20:56;;;;;;;2.97;1.10;;;12.40;38.80;;;;;;2332556;54;20936;-74
2023/02/27 14:23:24;;;;;;;1.60;0.60;;;12.50;39.10;;;;;;2374551;53;21286;-75
2023/02/27 14:25:55;;;;;;;2.37;0.80;;;12.50;39.40;;;;;;2333255;54;20928;-75
2023/02/27 14:28:55;;;;;;;2.50;0.82;;;12.50;39.20;;;;;;2333323;54;21020;-75
2023/02/27 14:31:29;;;;;;;1.85;0.62;;;12.50;38.10;;;;;;2493315;53;21059;-73
2023/02/27 14:33:59;;;;;;;2.28;0.80;;;12.40;38.30;;;;;;2332497;54;21312;-73
2023/02/27 14:36:27;;;;;;;1.87;0.75;;;12.40;38.50;;;;;;2333468;53;20948;-73
2023/02/27 14:38:56;;;;;;;2.97;1.00;;;12.40;38.40;;;;;;2333210;54;20921;-74
2023/02/27 14:44:43;;;;;;;2.15;0.85;;;12.30;38.30;;;;;;2332419;54;21469;-73
2023/02/27 14:47:17;;;;;;;2.58;0.90;;;12.30;37.80;;;;;;2348749;53;20956;-74